sensor_id;sensor_type;location;lat;lon;timestamp;P1;durP1;ratioP1;P2;durP2;ratioP2
33716;SDS011;20046;50.746;7.072;2022-07-06T00:01:16;6.05;;;2.22;;
33716;SDS011;20046;50.746;7.072;2022-07-06T00:03:42;6.55;;;1.60;;
33716;SDS011;20046;50.746;7.072;2022-07-06T00:06:07;7.43;;;1.95;;
33716;SDS011;20046;50.746;7.072;2022-07-06T00:08:33;4.88;;;1.80;;
33716;SDS011;20046;50.746;7.072;2022-07-06T00:10:59;4.43;;;1.90;;
33716;SDS011;20046;50.746;7.072;2022-07-06T00:13:25;5.40;;;2.13;;
33716;SDS011;20046;50.746;7.072;2022-07-06T00:15:51;5.18;;;1.67;;
33716;SDS011;20046;50.746;7.072;2022-07-06T00:18:16;6.25;;;2.20;;
33716;SDS011;20046;50.746;7.072;2022-07-06T00:20:42;7.78;;;2.10;;
33716;SDS011;20046;50.746;7.072;2022-07-06T00:23:08;4.10;;;2.00;;
33716;SDS011;20046;50.746;7.072;2022-07-06T00:25:33;2.70;;;1.67;;
33716;SDS011;20046;50.746;7.072;2022-07-06T00:27:59;8.85;;;2.00;;
33716;SDS011;20046;50.746;7.072;2022-07-06T00:30:24;6.30;;;2.10;;
33716;SDS011;20046;50.746;7.072;2022-07-06T00:32:50;7.05;;;2.65;;
33716;SDS011;20046;50.746;7.072;2022-07-06T00:35:16;5.60;;;2.30;;
33716;SDS011;20046;50.746;7.072;2022-07-06T00:37:41;9.73;;;2.72;;
33716;SDS011;20046;50.746;7.072;2022-07-06T00:40:07;7.15;;;2.35;;
33716;SDS011;20046;50.746;7.072;2022-07-06T00:42:40;5.90;;;2.70;;
33716;SDS011;20046;50.746;7.072;2022-07-06T00:45:06;6.22;;;2.30;;
33716;SDS011;20046;50.746;7.072;2022-07-06T00:47:32;13.48;;;3.30;;
33716;SDS011;20046;50.746;7.072;2022-07-06T00:49:57;8.98;;;3.22;;
33716;SDS011;20046;50.746;7.072;2022-07-06T00:55:08;4.15;;;2.10;;
33716;SDS011;20046;50.746;7.072;2022-07-06T00:57:35;4.57;;;2.13;;
33716;SDS011;20046;50.746;7.072;2022-07-06T01:00:02;5.57;;;2.25;;
33716;SDS011;20046;50.746;7.072;2022-07-06T01:02:32;9.93;;;2.70;;
33716;SDS011;20046;50.746;7.072;2022-07-06T01:04:58;7.72;;;2.33;;
33716;SDS011;20046;50.746;7.072;2022-07-06T01:07:24;6.03;;;2.55;;
33716;SDS011;20046;50.746;7.072;2022-07-06T01:09:50;8.57;;;2.75;;
33716;SDS011;20046;50.746;7.072;2022-07-06T01:12:16;10.55;;;2.78;;
33716;SDS011;20046;50.746;7.072;2022-07-06T01:14:42;5.57;;;2.50;;
33716;SDS011;20046;50.746;7.072;2022-07-06T01:17:09;18.42;;;3.20;;
33716;SDS011;20046;50.746;7.072;2022-07-06T01:19:35;7.22;;;2.72;;
33716;SDS011;20046;50.746;7.072;2022-07-06T01:22:01;8.63;;;3.15;;
33716;SDS011;20046;50.746;7.072;2022-07-06T01:24:27;7.28;;;2.58;;
33716;SDS011;20046;50.746;7.072;2022-07-06T01:26:52;8.07;;;2.20;;
33716;SDS011;20046;50.746;7.072;2022-07-06T01:29:18;3.70;;;2.10;;
33716;SDS011;20046;50.746;7.072;2022-07-06T01:31:47;14.40;;;2.72;;
33716;SDS011;20046;50.746;7.072;2022-07-06T01:34:15;10.30;;;2.60;;
33716;SDS011;20046;50.746;7.072;2022-07-06T01:36:42;5.70;;;2.17;;
33716;SDS011;20046;50.746;7.072;2022-07-06T01:39:08;4.80;;;2.70;;
33716;SDS011;20046;50.746;7.072;2022-07-06T01:41:35;7.82;;;3.17;;
33716;SDS011;20046;50.746;7.072;2022-07-06T01:44:00;8.57;;;2.90;;
33716;SDS011;20046;50.746;7.072;2022-07-06T01:46:26;9.63;;;2.95;;
33716;SDS011;20046;50.746;7.072;2022-07-06T01:48:52;6.63;;;2.53;;
33716;SDS011;20046;50.746;7.072;2022-07-06T01:51:18;6.72;;;2.53;;
33716;SDS011;20046;50.746;7.072;2022-07-06T01:53:44;4.22;;;2.13;;
33716;SDS011;20046;50.746;7.072;2022-07-06T01:56:10;8.07;;;2.20;;
33716;SDS011;20046;50.746;7.072;2022-07-06T01:58:36;8.15;;;2.40;;
33716;SDS011;20046;50.746;7.072;2022-07-06T02:01:13;7.18;;;2.70;;
33716;SDS011;20046;50.746;7.072;2022-07-06T02:03:43;7.80;;;3.08;;
33716;SDS011;20046;50.746;7.072;2022-07-06T02:06:10;5.95;;;2.60;;
33716;SDS011;20046;50.746;7.072;2022-07-06T02:08:37;6.95;;;2.67;;
33716;SDS011;20046;50.746;7.072;2022-07-06T02:11:04;7.15;;;3.08;;
33716;SDS011;20046;50.746;7.072;2022-07-06T02:13:31;7.47;;;3.15;;
33716;SDS011;20046;50.746;7.072;2022-07-06T02:15:57;7.25;;;3.38;;
33716;SDS011;20046;50.746;7.072;2022-07-06T02:18:22;12.05;;;2.92;;
33716;SDS011;20046;50.746;7.072;2022-07-06T02:20:48;13.98;;;2.83;;
33716;SDS011;20046;50.746;7.072;2022-07-06T02:23:14;7.70;;;3.67;;
33716;SDS011;20046;50.746;7.072;2022-07-06T02:25:40;8.20;;;3.28;;
33716;SDS011;20046;50.746;7.072;2022-07-06T02:28:05;6.85;;;3.45;;
33716;SDS011;20046;50.746;7.072;2022-07-06T02:30:31;8.15;;;3.08;;
33716;SDS011;20046;50.746;7.072;2022-07-06T02:32:57;5.90;;;2.80;;
33716;SDS011;20046;50.746;7.072;2022-07-06T02:35:22;8.23;;;3.38;;
33716;SDS011;20046;50.746;7.072;2022-07-06T02:37:48;8.88;;;2.78;;
33716;SDS011;20046;50.746;7.072;2022-07-06T02:40:14;7.00;;;2.60;;
33716;SDS011;20046;50.746;7.072;2022-07-06T02:42:39;8.63;;;3.38;;
33716;SDS011;20046;50.746;7.072;2022-07-06T02:45:05;10.75;;;3.70;;
33716;SDS011;20046;50.746;7.072;2022-07-06T02:47:32;6.15;;;3.30;;
33716;SDS011;20046;50.746;7.072;2022-07-06T02:49:57;8.70;;;3.47;;
33716;SDS011;20046;50.746;7.072;2022-07-06T02:52:23;10.27;;;3.20;;
33716;SDS011;20046;50.746;7.072;2022-07-06T02:54:49;9.18;;;3.90;;
33716;SDS011;20046;50.746;7.072;2022-07-06T02:57:15;9.95;;;3.70;;
33716;SDS011;20046;50.746;7.072;2022-07-06T02:59:41;7.28;;;3.28;;
33716;SDS011;20046;50.746;7.072;2022-07-06T03:02:07;9.02;;;3.10;;
33716;SDS011;20046;50.746;7.072;2022-07-06T03:04:33;12.10;;;3.08;;
33716;SDS011;20046;50.746;7.072;2022-07-06T03:06:59;8.50;;;3.47;;
33716;SDS011;20046;50.746;7.072;2022-07-06T03:09:25;8.07;;;3.05;;
33716;SDS011;20046;50.746;7.072;2022-07-06T03:11:51;6.32;;;2.90;;
33716;SDS011;20046;50.746;7.072;2022-07-06T03:14:17;7.55;;;2.97;;
33716;SDS011;20046;50.746;7.072;2022-07-06T03:16:44;8.70;;;3.60;;
33716;SDS011;20046;50.746;7.072;2022-07-06T03:19:09;11.55;;;3.67;;
33716;SDS011;20046;50.746;7.072;2022-07-06T03:21:35;6.95;;;3.45;;
33716;SDS011;20046;50.746;7.072;2022-07-06T03:24:00;6.05;;;2.80;;
33716;SDS011;20046;50.746;7.072;2022-07-06T03:26:26;6.32;;;2.80;;
33716;SDS011;20046;50.746;7.072;2022-07-06T03:28:52;7.47;;;3.00;;
33716;SDS011;20046;50.746;7.072;2022-07-06T03:31:17;6.80;;;2.95;;
33716;SDS011;20046;50.746;7.072;2022-07-06T03:33:43;9.75;;;3.65;;
33716;SDS011;20046;50.746;7.072;2022-07-06T03:36:09;7.70;;;3.72;;
33716;SDS011;20046;50.746;7.072;2022-07-06T03:38:35;5.75;;;3.63;;
33716;SDS011;20046;50.746;7.072;2022-07-06T03:41:01;9.02;;;3.72;;
33716;SDS011;20046;50.746;7.072;2022-07-06T03:43:27;8.85;;;3.40;;
33716;SDS011;20046;50.746;7.072;2022-07-06T03:45:52;8.93;;;3.50;;
33716;SDS011;20046;50.746;7.072;2022-07-06T03:48:18;8.88;;;3.28;;
33716;SDS011;20046;50.746;7.072;2022-07-06T03:50:44;5.55;;;3.28;;
33716;SDS011;20046;50.746;7.072;2022-07-06T03:53:10;3.85;;;2.70;;
33716;SDS011;20046;50.746;7.072;2022-07-06T03:55:35;6.80;;;3.15;;
33716;SDS011;20046;50.746;7.072;2022-07-06T03:58:01;6.82;;;2.83;;
33716;SDS011;20046;50.746;7.072;2022-07-06T04:00:27;10.60;;;3.00;;
33716;SDS011;20046;50.746;7.072;2022-07-06T04:02:53;5.60;;;3.13;;
33716;SDS011;20046;50.746;7.072;2022-07-06T04:05:18;9.95;;;3.67;;
33716;SDS011;20046;50.746;7.072;2022-07-06T04:07:46;9.02;;;4.10;;
33716;SDS011;20046;50.746;7.072;2022-07-06T04:10:13;8.35;;;3.58;;
33716;SDS011;20046;50.746;7.072;2022-07-06T04:12:40;6.10;;;3.05;;
33716;SDS011;20046;50.746;7.072;2022-07-06T04:15:06;6.85;;;3.10;;
33716;SDS011;20046;50.746;7.072;2022-07-06T04:17:32;6.15;;;2.97;;
33716;SDS011;20046;50.746;7.072;2022-07-06T04:20:16;5.50;;;3.28;;
33716;SDS011;20046;50.746;7.072;2022-07-06T04:22:42;6.07;;;3.47;;
33716;SDS011;20046;50.746;7.072;2022-07-06T04:25:08;12.18;;;3.60;;
33716;SDS011;20046;50.746;7.072;2022-07-06T04:27:34;10.35;;;2.97;;
33716;SDS011;20046;50.746;7.072;2022-07-06T04:30:00;10.27;;;3.45;;
33716;SDS011;20046;50.746;7.072;2022-07-06T04:32:26;7.60;;;3.22;;
33716;SDS011;20046;50.746;7.072;2022-07-06T04:34:52;13.10;;;3.60;;
33716;SDS011;20046;50.746;7.072;2022-07-06T04:37:18;9.25;;;3.42;;
33716;SDS011;20046;50.746;7.072;2022-07-06T04:39:43;7.75;;;3.40;;
33716;SDS011;20046;50.746;7.072;2022-07-06T04:42:09;13.30;;;3.53;;
33716;SDS011;20046;50.746;7.072;2022-07-06T04:44:34;10.82;;;3.75;;
33716;SDS011;20046;50.746;7.072;2022-07-06T04:47:00;12.38;;;3.90;;
33716;SDS011;20046;50.746;7.072;2022-07-06T04:49:25;10.05;;;3.47;;
33716;SDS011;20046;50.746;7.072;2022-07-06T04:51:51;8.75;;;3.38;;
33716;SDS011;20046;50.746;7.072;2022-07-06T04:54:17;8.57;;;3.33;;
33716;SDS011;20046;50.746;7.072;2022-07-06T04:56:42;9.40;;;3.80;;
33716;SDS011;20046;50.746;7.072;2022-07-06T04:59:08;8.60;;;3.28;;
33716;SDS011;20046;50.746;7.072;2022-07-06T05:01:34;9.02;;;4.40;;
33716;SDS011;20046;50.746;7.072;2022-07-06T05:03:59;11.52;;;3.58;;
33716;SDS011;20046;50.746;7.072;2022-07-06T05:06:25;8.80;;;3.90;;
33716;SDS011;20046;50.746;7.072;2022-07-06T05:08:50;7.55;;;3.67;;
33716;SDS011;20046;50.746;7.072;2022-07-06T05:11:16;8.85;;;4.28;;
33716;SDS011;20046;50.746;7.072;2022-07-06T05:13:42;10.65;;;4.00;;
33716;SDS011;20046;50.746;7.072;2022-07-06T05:16:07;9.80;;;3.30;;
33716;SDS011;20046;50.746;7.072;2022-07-06T05:18:36;11.15;;;4.32;;
33716;SDS011;20046;50.746;7.072;2022-07-06T05:21:02;9.35;;;3.63;;
33716;SDS011;20046;50.746;7.072;2022-07-06T05:23:28;7.85;;;3.42;;
33716;SDS011;20046;50.746;7.072;2022-07-06T05:25:53;7.47;;;3.63;;
33716;SDS011;20046;50.746;7.072;2022-07-06T05:28:19;13.20;;;4.20;;
33716;SDS011;20046;50.746;7.072;2022-07-06T05:30:45;9.20;;;3.95;;
33716;SDS011;20046;50.746;7.072;2022-07-06T05:33:10;11.35;;;3.45;;
33716;SDS011;20046;50.746;7.072;2022-07-06T05:35:36;8.25;;;4.00;;
33716;SDS011;20046;50.746;7.072;2022-07-06T05:38:02;8.70;;;4.22;;
33716;SDS011;20046;50.746;7.072;2022-07-06T05:40:27;6.90;;;3.53;;
33716;SDS011;20046;50.746;7.072;2022-07-06T05:42:53;9.93;;;4.80;;
33716;SDS011;20046;50.746;7.072;2022-07-06T05:45:18;8.43;;;4.05;;
33716;SDS011;20046;50.746;7.072;2022-07-06T05:47:44;7.57;;;3.45;;
33716;SDS011;20046;50.746;7.072;2022-07-06T05:50:28;8.85;;;3.80;;
33716;SDS011;20046;50.746;7.072;2022-07-06T05:52:55;11.07;;;4.25;;
33716;SDS011;20046;50.746;7.072;2022-07-06T05:55:25;13.45;;;3.92;;
33716;SDS011;20046;50.746;7.072;2022-07-06T05:57:51;8.95;;;3.70;;
33716;SDS011;20046;50.746;7.072;2022-07-06T06:00:18;11.52;;;3.58;;
33716;SDS011;20046;50.746;7.072;2022-07-06T06:02:45;10.48;;;3.75;;
33716;SDS011;20046;50.746;7.072;2022-07-06T06:05:11;8.82;;;3.75;;
33716;SDS011;20046;50.746;7.072;2022-07-06T06:07:38;8.45;;;3.50;;
33716;SDS011;20046;50.746;7.072;2022-07-06T06:10:04;14.18;;;3.55;;
33716;SDS011;20046;50.746;7.072;2022-07-06T06:12:33;8.73;;;3.30;;
33716;SDS011;20046;50.746;7.072;2022-07-06T06:14:59;12.38;;;4.05;;
33716;SDS011;20046;50.746;7.072;2022-07-06T06:17:24;10.93;;;3.38;;
33716;SDS011;20046;50.746;7.072;2022-07-06T06:19:50;9.50;;;3.65;;
33716;SDS011;20046;50.746;7.072;2022-07-06T06:22:16;11.38;;;4.18;;
33716;SDS011;20046;50.746;7.072;2022-07-06T06:24:41;9.23;;;3.83;;
33716;SDS011;20046;50.746;7.072;2022-07-06T06:27:07;13.23;;;4.60;;
33716;SDS011;20046;50.746;7.072;2022-07-06T06:29:32;11.85;;;4.32;;
33716;SDS011;20046;50.746;7.072;2022-07-06T06:31:58;13.35;;;4.80;;
33716;SDS011;20046;50.746;7.072;2022-07-06T06:34:24;11.80;;;4.15;;
33716;SDS011;20046;50.746;7.072;2022-07-06T06:36:49;7.57;;;3.95;;
33716;SDS011;20046;50.746;7.072;2022-07-06T06:39:15;8.75;;;3.97;;
33716;SDS011;20046;50.746;7.072;2022-07-06T06:41:41;13.32;;;4.18;;
33716;SDS011;20046;50.746;7.072;2022-07-06T06:44:07;10.32;;;4.60;;
33716;SDS011;20046;50.746;7.072;2022-07-06T06:46:32;7.70;;;3.75;;
33716;SDS011;20046;50.746;7.072;2022-07-06T06:48:58;11.88;;;3.78;;
33716;SDS011;20046;50.746;7.072;2022-07-06T06:51:24;10.15;;;4.20;;
33716;SDS011;20046;50.746;7.072;2022-07-06T06:53:49;11.25;;;4.43;;
33716;SDS011;20046;50.746;7.072;2022-07-06T06:56:15;8.75;;;4.30;;
33716;SDS011;20046;50.746;7.072;2022-07-06T06:58:41;16.15;;;4.32;;
33716;SDS011;20046;50.746;7.072;2022-07-06T07:01:07;9.52;;;3.72;;
33716;SDS011;20046;50.746;7.072;2022-07-06T07:03:33;14.48;;;4.07;;
33716;SDS011;20046;50.746;7.072;2022-07-06T07:05:58;8.23;;;3.88;;
33716;SDS011;20046;50.746;7.072;2022-07-06T07:08:24;16.45;;;4.03;;
33716;SDS011;20046;50.746;7.072;2022-07-06T07:10:50;10.80;;;3.55;;
33716;SDS011;20046;50.746;7.072;2022-07-06T07:13:16;9.55;;;3.95;;
33716;SDS011;20046;50.746;7.072;2022-07-06T07:15:42;16.42;;;3.85;;
33716;SDS011;20046;50.746;7.072;2022-07-06T07:18:07;10.52;;;3.80;;
33716;SDS011;20046;50.746;7.072;2022-07-06T07:20:33;10.38;;;3.33;;
33716;SDS011;20046;50.746;7.072;2022-07-06T07:22:59;8.68;;;2.63;;
33716;SDS011;20046;50.746;7.072;2022-07-06T07:25:25;13.80;;;2.50;;
33716;SDS011;20046;50.746;7.072;2022-07-06T07:27:51;11.82;;;2.78;;
33716;SDS011;20046;50.746;7.072;2022-07-06T07:30:17;7.45;;;2.00;;
33716;SDS011;20046;50.746;7.072;2022-07-06T07:32:43;13.82;;;2.08;;
33716;SDS011;20046;50.746;7.072;2022-07-06T07:35:08;13.43;;;2.35;;
33716;SDS011;20046;50.746;7.072;2022-07-06T07:37:34;10.32;;;1.60;;
33716;SDS011;20046;50.746;7.072;2022-07-06T07:40:00;7.15;;;1.50;;
33716;SDS011;20046;50.746;7.072;2022-07-06T07:42:27;10.20;;;1.90;;
33716;SDS011;20046;50.746;7.072;2022-07-06T07:44:52;10.10;;;1.60;;
33716;SDS011;20046;50.746;7.072;2022-07-06T07:47:18;14.95;;;1.88;;
33716;SDS011;20046;50.746;7.072;2022-07-06T07:49:44;3.83;;;1.52;;
33716;SDS011;20046;50.746;7.072;2022-07-06T07:52:10;6.82;;;2.08;;
33716;SDS011;20046;50.746;7.072;2022-07-06T07:54:35;6.10;;;2.28;;
33716;SDS011;20046;50.746;7.072;2022-07-06T07:57:01;6.30;;;2.00;;
33716;SDS011;20046;50.746;7.072;2022-07-06T07:59:27;6.95;;;2.30;;
33716;SDS011;20046;50.746;7.072;2022-07-06T08:01:53;10.75;;;3.10;;
33716;SDS011;20046;50.746;7.072;2022-07-06T08:04:19;10.20;;;2.67;;
33716;SDS011;20046;50.746;7.072;2022-07-06T08:06:44;6.45;;;1.85;;
33716;SDS011;20046;50.746;7.072;2022-07-06T08:09:10;8.98;;;2.72;;
33716;SDS011;20046;50.746;7.072;2022-07-06T08:11:36;8.55;;;4.63;;
33716;SDS011;20046;50.746;7.072;2022-07-06T08:14:02;5.63;;;2.15;;
33716;SDS011;20046;50.746;7.072;2022-07-06T08:16:28;4.18;;;1.80;;
33716;SDS011;20046;50.746;7.072;2022-07-06T08:18:54;4.57;;;1.48;;
33716;SDS011;20046;50.746;7.072;2022-07-06T08:21:20;8.10;;;2.08;;
33716;SDS011;20046;50.746;7.072;2022-07-06T08:23:45;7.85;;;2.30;;
33716;SDS011;20046;50.746;7.072;2022-07-06T08:26:11;5.18;;;1.95;;
33716;SDS011;20046;50.746;7.072;2022-07-06T08:28:37;5.82;;;1.48;;
33716;SDS011;20046;50.746;7.072;2022-07-06T08:31:03;4.20;;;1.38;;
33716;SDS011;20046;50.746;7.072;2022-07-06T08:33:28;2.83;;;1.10;;
33716;SDS011;20046;50.746;7.072;2022-07-06T08:35:54;5.07;;;1.05;;
33716;SDS011;20046;50.746;7.072;2022-07-06T08:38:20;6.82;;;1.38;;
33716;SDS011;20046;50.746;7.072;2022-07-06T08:40:46;10.02;;;1.58;;
33716;SDS011;20046;50.746;7.072;2022-07-06T08:43:13;4.93;;;1.05;;
33716;SDS011;20046;50.746;7.072;2022-07-06T08:45:40;5.32;;;1.30;;
33716;SDS011;20046;50.746;7.072;2022-07-06T08:48:08;4.25;;;1.63;;
33716;SDS011;20046;50.746;7.072;2022-07-06T08:50:35;3.00;;;1.17;;
33716;SDS011;20046;50.746;7.072;2022-07-06T08:53:01;6.90;;;1.70;;
33716;SDS011;20046;50.746;7.072;2022-07-06T08:55:27;3.90;;;1.45;;
33716;SDS011;20046;50.746;7.072;2022-07-06T08:57:54;9.05;;;1.65;;
33716;SDS011;20046;50.746;7.072;2022-07-06T09:00:21;5.25;;;1.55;;
33716;SDS011;20046;50.746;7.072;2022-07-06T09:02:48;5.90;;;2.03;;
33716;SDS011;20046;50.746;7.072;2022-07-06T09:05:16;8.02;;;1.20;;
33716;SDS011;20046;50.746;7.072;2022-07-06T09:07:42;8.65;;;1.73;;
33716;SDS011;20046;50.746;7.072;2022-07-06T09:10:13;6.47;;;2.00;;
33716;SDS011;20046;50.746;7.072;2022-07-06T09:12:41;6.20;;;1.10;;
33716;SDS011;20046;50.746;7.072;2022-07-06T09:15:07;10.05;;;1.23;;
33716;SDS011;20046;50.746;7.072;2022-07-06T09:17:36;6.07;;;1.35;;
33716;SDS011;20046;50.746;7.072;2022-07-06T09:20:06;7.85;;;1.45;;
33716;SDS011;20046;50.746;7.072;2022-07-06T09:22:33;5.65;;;1.90;;
33716;SDS011;20046;50.746;7.072;2022-07-06T09:25:05;7.10;;;1.50;;
33716;SDS011;20046;50.746;7.072;2022-07-06T09:27:44;5.03;;;1.30;;
33716;SDS011;20046;50.746;7.072;2022-07-06T09:30:15;5.47;;;1.23;;
33716;SDS011;20046;50.746;7.072;2022-07-06T09:32:42;8.27;;;1.42;;
33716;SDS011;20046;50.746;7.072;2022-07-06T09:35:26;5.25;;;1.40;;
33716;SDS011;20046;50.746;7.072;2022-07-06T09:40:24;5.13;;;1.33;;
33716;SDS011;20046;50.746;7.072;2022-07-06T09:42:50;6.38;;;1.45;;
33716;SDS011;20046;50.746;7.072;2022-07-06T09:45:21;7.47;;;2.08;;
33716;SDS011;20046;50.746;7.072;2022-07-06T09:47:47;4.53;;;1.55;;
33716;SDS011;20046;50.746;7.072;2022-07-06T09:50:15;8.52;;;1.55;;
33716;SDS011;20046;50.746;7.072;2022-07-06T09:52:52;4.10;;;1.30;;
33716;SDS011;20046;50.746;7.072;2022-07-06T09:55:19;5.35;;;1.50;;
33716;SDS011;20046;50.746;7.072;2022-07-06T09:57:53;5.85;;;1.88;;
33716;SDS011;20046;50.746;7.072;2022-07-06T10:00:20;6.15;;;2.30;;
33716;SDS011;20046;50.746;7.072;2022-07-06T10:02:46;6.72;;;1.40;;
33716;SDS011;20046;50.746;7.072;2022-07-06T10:05:14;4.60;;;2.00;;
33716;SDS011;20046;50.746;7.072;2022-07-06T10:07:42;7.10;;;1.75;;
33716;SDS011;20046;50.746;7.072;2022-07-06T10:10:14;6.07;;;1.52;;
33716;SDS011;20046;50.746;7.072;2022-07-06T10:12:40;5.32;;;1.60;;
33716;SDS011;20046;50.746;7.072;2022-07-06T10:15:09;7.20;;;2.30;;
33716;SDS011;20046;50.746;7.072;2022-07-06T10:17:36;9.98;;;2.03;;
33716;SDS011;20046;50.746;7.072;2022-07-06T10:20:05;5.80;;;2.35;;
33716;SDS011;20046;50.746;7.072;2022-07-06T10:22:31;11.07;;;2.33;;
33716;SDS011;20046;50.746;7.072;2022-07-06T10:24:59;4.70;;;1.63;;
33716;SDS011;20046;50.746;7.072;2022-07-06T10:27:27;6.00;;;1.58;;
33716;SDS011;20046;50.746;7.072;2022-07-06T10:29:54;5.57;;;2.42;;
33716;SDS011;20046;50.746;7.072;2022-07-06T10:32:19;4.55;;;1.73;;
33716;SDS011;20046;50.746;7.072;2022-07-06T10:34:48;7.75;;;1.60;;
33716;SDS011;20046;50.746;7.072;2022-07-06T10:37:24;4.95;;;1.50;;
33716;SDS011;20046;50.746;7.072;2022-07-06T10:39:51;4.05;;;1.55;;
33716;SDS011;20046;50.746;7.072;2022-07-06T10:50:37;7.93;;;1.25;;
33716;SDS011;20046;50.746;7.072;2022-07-06T10:53:12;3.20;;;1.08;;
33716;SDS011;20046;50.746;7.072;2022-07-06T10:55:40;1.38;;;0.88;;
33716;SDS011;20046;50.746;7.072;2022-07-06T10:58:08;4.18;;;1.75;;
33716;SDS011;20046;50.746;7.072;2022-07-06T11:00:54;4.10;;;1.38;;
33716;SDS011;20046;50.746;7.072;2022-07-06T11:06:11;3.20;;;1.35;;
33716;SDS011;20046;50.746;7.072;2022-07-06T11:13:48;4.78;;;1.38;;
33716;SDS011;20046;50.746;7.072;2022-07-06T11:16:33;4.57;;;1.40;;
33716;SDS011;20046;50.746;7.072;2022-07-06T11:19:09;5.15;;;1.35;;
33716;SDS011;20046;50.746;7.072;2022-07-06T11:24:04;2.60;;;1.23;;
33716;SDS011;20046;50.746;7.072;2022-07-06T11:26:37;5.28;;;1.30;;
33716;SDS011;20046;50.746;7.072;2022-07-06T11:29:07;2.22;;;1.05;;
33716;SDS011;20046;50.746;7.072;2022-07-06T11:31:38;3.95;;;1.40;;
33716;SDS011;20046;50.746;7.072;2022-07-06T11:34:06;4.88;;;1.23;;
33716;SDS011;20046;50.746;7.072;2022-07-06T11:36:32;4.68;;;1.30;;
33716;SDS011;20046;50.746;7.072;2022-07-06T11:38:59;3.97;;;1.30;;
33716;SDS011;20046;50.746;7.072;2022-07-06T11:41:24;6.75;;;1.80;;
33716;SDS011;20046;50.746;7.072;2022-07-06T11:43:50;3.13;;;1.20;;
33716;SDS011;20046;50.746;7.072;2022-07-06T11:48:56;4.10;;;1.55;;
33716;SDS011;20046;50.746;7.072;2022-07-06T11:51:24;2.60;;;1.10;;
33716;SDS011;20046;50.746;7.072;2022-07-06T11:53:52;5.50;;;1.27;;
33716;SDS011;20046;50.746;7.072;2022-07-06T11:56:24;3.50;;;1.10;;
33716;SDS011;20046;50.746;7.072;2022-07-06T11:58:58;2.90;;;1.00;;
33716;SDS011;20046;50.746;7.072;2022-07-06T12:01:25;5.30;;;1.00;;
33716;SDS011;20046;50.746;7.072;2022-07-06T12:03:53;4.80;;;1.10;;
33716;SDS011;20046;50.746;7.072;2022-07-06T12:06:23;3.47;;;1.17;;
33716;SDS011;20046;50.746;7.072;2022-07-06T12:08:50;4.45;;;1.20;;
33716;SDS011;20046;50.746;7.072;2022-07-06T12:11:27;6.60;;;1.20;;
33716;SDS011;20046;50.746;7.072;2022-07-06T12:13:54;6.25;;;1.35;;
33716;SDS011;20046;50.746;7.072;2022-07-06T12:16:21;5.53;;;1.20;;
33716;SDS011;20046;50.746;7.072;2022-07-06T12:18:54;3.65;;;1.23;;
33716;SDS011;20046;50.746;7.072;2022-07-06T12:21:19;3.20;;;1.13;;
33716;SDS011;20046;50.746;7.072;2022-07-06T12:23:49;3.50;;;1.20;;
33716;SDS011;20046;50.746;7.072;2022-07-06T12:26:16;5.55;;;1.13;;
33716;SDS011;20046;50.746;7.072;2022-07-06T12:29:03;2.35;;;0.93;;
33716;SDS011;20046;50.746;7.072;2022-07-06T12:31:39;3.45;;;1.25;;
33716;SDS011;20046;50.746;7.072;2022-07-06T12:34:16;4.78;;;1.13;;
33716;SDS011;20046;50.746;7.072;2022-07-06T12:36:53;3.05;;;1.10;;
33716;SDS011;20046;50.746;7.072;2022-07-06T12:39:21;6.63;;;1.05;;
33716;SDS011;20046;50.746;7.072;2022-07-06T12:41:56;3.83;;;1.10;;
33716;SDS011;20046;50.746;7.072;2022-07-06T12:44:27;5.18;;;1.40;;
33716;SDS011;20046;50.746;7.072;2022-07-06T12:47:03;4.53;;;1.38;;
33716;SDS011;20046;50.746;7.072;2022-07-06T12:49:34;3.78;;;1.20;;
33716;SDS011;20046;50.746;7.072;2022-07-06T12:54:32;6.70;;;1.92;;
33716;SDS011;20046;50.746;7.072;2022-07-06T12:56:59;3.80;;;1.60;;
33716;SDS011;20046;50.746;7.072;2022-07-06T12:59:25;7.45;;;1.98;;
33716;SDS011;20046;50.746;7.072;2022-07-06T13:01:52;6.13;;;1.85;;
33716;SDS011;20046;50.746;7.072;2022-07-06T13:04:21;6.90;;;1.30;;
33716;SDS011;20046;50.746;7.072;2022-07-06T13:06:51;4.07;;;1.50;;
33716;SDS011;20046;50.746;7.072;2022-07-06T13:09:17;7.28;;;1.00;;
33716;SDS011;20046;50.746;7.072;2022-07-06T13:11:44;5.82;;;1.40;;
33716;SDS011;20046;50.746;7.072;2022-07-06T13:14:11;3.08;;;1.33;;
33716;SDS011;20046;50.746;7.072;2022-07-06T13:16:37;5.88;;;1.60;;
33716;SDS011;20046;50.746;7.072;2022-07-06T13:19:03;10.32;;;1.30;;
33716;SDS011;20046;50.746;7.072;2022-07-06T13:21:29;4.60;;;1.50;;
33716;SDS011;20046;50.746;7.072;2022-07-06T13:23:54;8.95;;;1.42;;
33716;SDS011;20046;50.746;7.072;2022-07-06T13:26:20;5.60;;;1.10;;
33716;SDS011;20046;50.746;7.072;2022-07-06T13:28:46;5.80;;;1.20;;
33716;SDS011;20046;50.746;7.072;2022-07-06T13:31:11;5.40;;;1.30;;
33716;SDS011;20046;50.746;7.072;2022-07-06T13:33:37;4.40;;;1.20;;
33716;SDS011;20046;50.746;7.072;2022-07-06T13:36:03;2.63;;;1.15;;
33716;SDS011;20046;50.746;7.072;2022-07-06T13:38:29;5.35;;;1.30;;
33716;SDS011;20046;50.746;7.072;2022-07-06T13:40:54;4.53;;;1.15;;
33716;SDS011;20046;50.746;7.072;2022-07-06T13:43:20;2.80;;;1.02;;
33716;SDS011;20046;50.746;7.072;2022-07-06T13:45:46;3.95;;;1.38;;
33716;SDS011;20046;50.746;7.072;2022-07-06T13:48:12;4.13;;;1.77;;
33716;SDS011;20046;50.746;7.072;2022-07-06T13:50:39;4.93;;;1.13;;
33716;SDS011;20046;50.746;7.072;2022-07-06T13:53:05;7.05;;;1.20;;
33716;SDS011;20046;50.746;7.072;2022-07-06T13:55:31;4.70;;;1.20;;
33716;SDS011;20046;50.746;7.072;2022-07-06T13:57:57;7.95;;;1.48;;
33716;SDS011;20046;50.746;7.072;2022-07-06T14:00:23;8.25;;;1.10;;
33716;SDS011;20046;50.746;7.072;2022-07-06T14:02:49;2.95;;;0.95;;
33716;SDS011;20046;50.746;7.072;2022-07-06T14:05:15;3.60;;;1.10;;
33716;SDS011;20046;50.746;7.072;2022-07-06T14:07:41;2.63;;;1.00;;
33716;SDS011;20046;50.746;7.072;2022-07-06T14:10:07;4.03;;;1.10;;
33716;SDS011;20046;50.746;7.072;2022-07-06T14:12:33;4.18;;;1.05;;
33716;SDS011;20046;50.746;7.072;2022-07-06T14:14:58;6.25;;;1.27;;
33716;SDS011;20046;50.746;7.072;2022-07-06T14:17:25;8.20;;;1.52;;
33716;SDS011;20046;50.746;7.072;2022-07-06T14:19:51;4.82;;;1.20;;
33716;SDS011;20046;50.746;7.072;2022-07-06T14:22:16;9.27;;;1.33;;
33716;SDS011;20046;50.746;7.072;2022-07-06T14:24:42;2.97;;;1.05;;
33716;SDS011;20046;50.746;7.072;2022-07-06T14:27:08;2.03;;;0.90;;
33716;SDS011;20046;50.746;7.072;2022-07-06T14:29:33;3.60;;;0.98;;
33716;SDS011;20046;50.746;7.072;2022-07-06T14:31:59;3.22;;;1.00;;
33716;SDS011;20046;50.746;7.072;2022-07-06T14:34:25;1.90;;;0.80;;
33716;SDS011;20046;50.746;7.072;2022-07-06T14:36:51;5.55;;;1.58;;
33716;SDS011;20046;50.746;7.072;2022-07-06T14:39:17;9.65;;;1.25;;
33716;SDS011;20046;50.746;7.072;2022-07-06T14:41:43;4.53;;;1.38;;
33716;SDS011;20046;50.746;7.072;2022-07-06T14:44:08;6.70;;;1.35;;
33716;SDS011;20046;50.746;7.072;2022-07-06T14:46:34;4.78;;;1.10;;
33716;SDS011;20046;50.746;7.072;2022-07-06T14:49:00;5.55;;;1.33;;
33716;SDS011;20046;50.746;7.072;2022-07-06T14:51:26;6.95;;;1.10;;
33716;SDS011;20046;50.746;7.072;2022-07-06T14:53:51;5.88;;;1.00;;
33716;SDS011;20046;50.746;7.072;2022-07-06T14:56:17;6.22;;;1.05;;
33716;SDS011;20046;50.746;7.072;2022-07-06T14:58:43;4.65;;;0.85;;
33716;SDS011;20046;50.746;7.072;2022-07-06T15:01:08;4.55;;;1.27;;
33716;SDS011;20046;50.746;7.072;2022-07-06T15:03:34;2.70;;;0.70;;
33716;SDS011;20046;50.746;7.072;2022-07-06T15:06:00;6.25;;;1.30;;
33716;SDS011;20046;50.746;7.072;2022-07-06T15:08:25;7.47;;;1.00;;
33716;SDS011;20046;50.746;7.072;2022-07-06T15:10:51;3.97;;;1.23;;
33716;SDS011;20046;50.746;7.072;2022-07-06T15:13:17;2.10;;;0.70;;